This is the latest recevied weather packets stored in our database for station/object DK4SDR-10. If no packets are shown the sender has not sent any weather packets the latest 10 day(s).
| Time | Temp. | Humidity | Pressure | Rain* | Wind** | Luminosity | Snow |
|---|---|---|---|---|---|---|---|
| 1778243717 | 28.89° C | 35% | 1018 hPa | - | - | - | - |
| 1778242817 | 27.78° C | 37% | 1017.9 hPa | - | - | - | - |
| 1778241917 | 26.67° C | 39% | 1018.1 hPa | - | - | - | - |
| 1778241017 | 25° C | 43% | 1018.2 hPa | - | - | - | - |
| 1778240117 | 25° C | 43% | 1018.3 hPa | - | - | - | - |
| 1778239216 | 23.33° C | 48% | 1018.5 hPa | - | - | - | - |
| 1778238316 | 21.67° C | 51% | 1018.7 hPa | - | - | - | - |
| 1778237417 | 20° C | 54% | 1018.7 hPa | - | - | - | - |
| 1778236516 | 18.33° C | 58% | 1018.9 hPa | - | - | - | - |
| 1778235616 | 16.67° C | 61% | 1018.9 hPa | - | - | - | - |
| 1778234715 | 16.11° C | 61% | 1019 hPa | - | - | - | - |
| 1778233815 | 15.56° C | 62% | 1019.1 hPa | - | - | - | - |
| 1778232915 | 15° C | 62% | 1019.2 hPa | - | - | - | - |
| 1778232015 | 14.44° C | 63% | 1019.3 hPa | - | - | - | - |
| 1778231115 | 14.44° C | 64% | 1019.2 hPa | - | - | - | - |
| 1778230215 | 13.89° C | 65% | 1019.2 hPa | - | - | - | - |
| 1778229315 | 13.33° C | 66% | 1019.1 hPa | - | - | - | - |
| 1778228415 | 13.33° C | 66% | 1019 hPa | - | - | - | - |
| 1778227515 | 12.78° C | 65% | 1019 hPa | - | - | - | - |
| 1778226615 | 12.22° C | 67% | 1019 hPa | - | - | - | - |
| 1778225715 | 12.22° C | 67% | 1019.1 hPa | - | - | - | - |
| 1778224815 | 11.67° C | 66% | 1019.1 hPa | - | - | - | - |
| 1778223915 | 11.67° C | 65% | 1019.1 hPa | - | - | - | - |
| 1778218515 | 10.56° C | 64% | 1018.4 hPa | - | - | - | - |
| 1778212285 | 10.56° C | 64% | 1017.9 hPa | - | - | - | - |
* Rain since midnight (hover to see other rain measurements)
** Current wind speed in m/s (hover to see current wind gust speed)